Time;durP1;ratioP1;P1;durP2;ratioP2;P2;SDS_P1;SDS_P2;PMS_P1;PMS_P2;Temp;Humidity;BMP_temperature;BMP_pressure;BME280_temperature;BME280_humidity;BME280_pressure;Samples;Min_cycle;Max_cycle;Signal;HPM_P1;HPM_P2
2022/09/01 00:01:20;;;;;;;1.05;0.55;;;16.30;75.70;;;;;;5058271;28;20032;-46
2022/09/01 00:03:54;;;;;;;2.47;0.60;;;16.30;75.90;;;;;;5053027;28;20111;-49
2022/09/01 00:06:22;;;;;;;2.50;0.68;;;16.30;76.00;;;;;;5052292;28;20025;-50
2022/09/01 00:08:53;;;;;;;2.13;0.70;;;16.30;76.10;;;;;;5063418;28;20027;-47
2022/09/01 00:11:21;;;;;;;6.88;1.00;;;16.30;76.00;;;;;;5035486;28;20025;-46
2022/09/01 00:13:48;;;;;;;1.55;0.82;;;16.30;76.30;;;;;;5071050;28;20104;-45
2022/09/01 00:16:15;;;;;;;2.80;0.88;;;16.30;76.40;;;;;;5068361;28;20032;-46
2022/09/01 00:18:48;;;;;;;9.25;1.27;;;16.30;76.60;;;;;;5064613;28;20027;-48
2022/09/01 00:21:19;;;;;;;1.90;0.90;;;16.30;76.40;;;;;;5057064;28;20051;-47
2022/09/01 00:23:48;;;;;;;1.92;0.90;;;16.30;76.60;;;;;;5064579;28;20373;-49
2022/09/01 00:26:13;;;;;;;2.15;0.90;;;16.30;76.50;;;;;;5054588;28;20031;-46
2022/09/01 00:28:40;;;;;;;2.03;0.68;;;16.30;76.40;;;;;;5058630;28;20017;-48
2022/09/01 00:31:06;;;;;;;1.23;0.88;;;16.40;76.40;;;;;;5055175;28;20075;-46
2022/09/01 00:33:33;;;;;;;4.45;1.33;;;16.30;76.60;;;;;;5060371;28;20017;-47
2022/09/01 00:35:59;;;;;;;1.95;0.70;;;16.30;76.30;;;;;;5058583;28;20382;-46
2022/09/01 00:38:25;;;;;;;1.42;0.68;;;16.40;76.30;;;;;;5052506;28;20035;-46
2022/09/01 00:40:51;;;;;;;2.88;1.17;;;16.40;76.30;;;;;;5055060;28;20029;-48
2022/09/01 00:43:43;;;;;;;2.17;0.90;;;16.30;76.90;;;;;;5065456;28;20100;-47
2022/09/01 00:46:12;;;;;;;1.85;0.82;;;16.40;77.60;;;;;;5044456;28;20065;-49
2022/09/01 00:48:38;;;;;;;1.67;0.90;;;16.40;77.90;;;;;;5034779;28;20041;-48
2022/09/01 00:51:06;;;;;;;4.50;0.90;;;16.40;77.30;;;;;;5057715;28;20139;-46
2022/09/01 00:53:33;;;;;;;1.90;0.73;;;16.40;77.20;;;;;;5056841;28;20024;-48
2022/09/01 00:55:59;;;;;;;2.33;0.90;;;16.40;77.50;;;;;;5068505;28;20082;-46
2022/09/01 00:58:27;;;;;;;1.65;0.65;;;16.40;77.60;;;;;;5068874;28;20094;-46
2022/09/01 01:00:53;;;;;;;3.13;0.70;;;16.40;77.60;;;;;;5066856;28;20410;-46
2022/09/01 01:03:19;;;;;;;2.85;0.85;;;16.40;77.60;;;;;;5070980;28;20112;-50
2022/09/01 01:05:58;;;;;;;1.83;0.80;;;16.40;77.50;;;;;;5055609;28;20032;-47
2022/09/01 01:08:32;;;;;;;2.38;0.80;;;16.30;77.30;;;;;;5070177;28;20380;-51
2022/09/01 01:11:09;;;;;;;1.38;0.57;;;16.30;77.00;;;;;;5062158;28;20481;-48
2022/09/01 01:13:50;;;;;;;1.40;0.70;;;16.30;77.10;;;;;;5069578;28;20032;-46
2022/09/01 01:16:16;;;;;;;1.13;0.68;;;16.30;77.00;;;;;;5062619;28;20024;-46
2022/09/01 01:18:42;;;;;;;1.65;0.68;;;16.20;76.90;;;;;;5051657;28;20029;-47
2022/09/01 01:24:26;;;;;;;2.90;0.77;;;16.20;77.10;;;;;;5069584;28;20128;-46
2022/09/01 01:26:58;;;;;;;1.55;0.75;;;16.20;77.10;;;;;;5050445;28;20028;-46
2022/09/01 01:29:32;;;;;;;1.90;0.57;;;16.20;77.30;;;;;;5064379;28;20626;-46
2022/09/01 01:31:59;;;;;;;1.27;0.63;;;16.10;77.50;;;;;;5051102;28;20052;-46
2022/09/01 01:34:25;;;;;;;1.77;0.70;;;16.10;77.60;;;;;;5037278;28;20021;-47
2022/09/01 01:36:51;;;;;;;1.10;0.60;;;16.10;77.90;;;;;;5063365;28;20042;-46
2022/09/01 01:39:24;;;;;;;3.78;0.75;;;16.00;77.80;;;;;;5053514;28;20053;-47
2022/09/01 01:41:50;;;;;;;1.85;0.68;;;16.10;78.10;;;;;;5063748;28;20028;-46
2022/09/01 01:44:21;;;;;;;2.05;1.02;;;16.00;78.30;;;;;;5040697;28;20107;-47
2022/09/01 01:46:50;;;;;;;1.25;0.50;;;16.00;78.20;;;;;;5062570;28;20029;-47
2022/09/01 01:49:22;;;;;;;2.00;0.70;;;16.00;78.00;;;;;;5050114;28;20462;-48
2022/09/01 01:51:56;;;;;;;3.45;0.80;;;16.00;77.80;;;;;;5033137;28;20033;-49
2022/09/01 01:54:25;;;;;;;2.10;0.65;;;16.00;77.90;;;;;;5059879;28;20019;-47
2022/09/01 01:56:54;;;;;;;1.40;0.52;;;16.00;77.90;;;;;;5058223;28;20430;-46
2022/09/01 01:59:23;;;;;;;1.80;0.93;;;16.00;77.90;;;;;;5065959;28;20456;-46
2022/09/01 02:01:49;;;;;;;1.13;0.60;;;16.10;78.10;;;;;;5068226;28;20450;-46
2022/09/01 02:04:16;;;;;;;1.55;0.75;;;16.10;78.10;;;;;;5064839;28;20289;-46
2022/09/01 02:06:46;;;;;;;1.77;0.70;;;16.00;78.10;;;;;;5070434;28;20071;-47
2022/09/01 02:09:14;;;;;;;1.45;0.60;;;16.00;78.30;;;;;;5062576;28;20040;-46
2022/09/01 02:11:43;;;;;;;1.55;0.70;;;16.00;78.30;;;;;;5052516;28;20029;-48
2022/09/01 02:14:12;;;;;;;2.00;0.55;;;16.00;78.30;;;;;;5049805;28;20108;-46
2022/09/01 02:16:38;;;;;;;1.25;0.65;;;16.00;78.50;;;;;;5050172;28;20020;-46
2022/09/01 02:19:07;;;;;;;1.70;0.65;;;16.00;78.60;;;;;;5065024;28;21806;-47
2022/09/01 02:21:33;;;;;;;1.10;0.40;;;16.00;78.80;;;;;;5063365;28;20047;-49
2022/09/01 02:24:07;;;;;;;1.88;0.73;;;16.00;79.00;;;;;;5037443;28;20029;-47
2022/09/01 02:26:46;;;;;;;2.17;0.65;;;16.00;79.00;;;;;;5052548;28;20037;-47
2022/09/01 02:29:20;;;;;;;2.33;0.80;;;16.00;79.30;;;;;;5049593;28;20021;-47
2022/09/01 02:31:49;;;;;;;1.33;0.70;;;16.00;79.10;;;;;;5032786;28;20328;-46
2022/09/01 02:34:18;;;;;;;2.47;0.90;;;16.00;79.10;;;;;;5018922;28;20036;-48
2022/09/01 02:36:53;;;;;;;0.95;0.52;;;16.00;79.00;;;;;;5049858;28;20025;-48
2022/09/01 02:39:28;;;;;;;1.27;0.60;;;16.00;78.90;;;;;;5032462;28;20060;-46
2022/09/01 02:41:54;;;;;;;2.13;0.40;;;16.10;79.10;;;;;;5063855;28;20038;-46
2022/09/01 02:44:20;;;;;;;1.67;0.75;;;16.10;79.00;;;;;;5040091;28;20048;-46
2022/09/01 02:46:47;;;;;;;1.67;0.65;;;16.10;79.10;;;;;;5054971;28;20466;-47
2022/09/01 02:49:19;;;;;;;0.70;0.40;;;16.10;79.30;;;;;;5033748;28;20049;-49
2022/09/01 02:51:51;;;;;;;2.03;0.55;;;16.10;79.20;;;;;;5064804;28;20085;-46
2022/09/01 02:54:22;;;;;;;2.40;0.70;;;16.10;79.40;;;;;;5066465;28;20012;-50
2022/09/01 02:56:48;;;;;;;1.52;0.70;;;16.10;79.70;;;;;;5056964;28;20032;-47
2022/09/01 02:59:21;;;;;;;3.15;1.02;;;16.20;79.90;;;;;;5060312;28;20033;-47
2022/09/01 03:01:52;;;;;;;2.05;0.77;;;16.30;79.90;;;;;;5049371;28;20025;-47
2022/09/01 03:04:19;;;;;;;1.73;0.68;;;16.30;79.80;;;;;;5049237;28;20083;-47
2022/09/01 03:06:49;;;;;;;1.55;0.80;;;16.30;79.90;;;;;;5030710;28;20126;-46
2022/09/01 03:09:17;;;;;;;2.15;0.73;;;16.30;79.70;;;;;;5048630;28;20033;-48
2022/09/01 03:11:46;;;;;;;1.65;0.93;;;16.30;79.80;;;;;;5032357;28;20116;-47
2022/09/01 03:14:14;;;;;;;4.30;1.10;;;16.30;79.40;;;;;;5059938;28;20029;-47
2022/09/01 03:16:40;;;;;;;3.10;1.25;;;16.40;79.10;;;;;;5057531;28;20036;-47
2022/09/01 03:19:07;;;;;;;3.72;1.23;;;16.40;79.10;;;;;;5049321;28;20365;-48
2022/09/01 03:21:35;;;;;;;1.75;0.70;;;16.40;79.10;;;;;;5061967;28;20108;-48
2022/09/01 03:24:02;;;;;;;3.83;0.85;;;16.40;79.20;;;;;;5031894;28;20037;-46
2022/09/01 03:26:29;;;;;;;2.13;0.88;;;16.40;79.00;;;;;;5065591;28;20111;-47
2022/09/01 03:28:57;;;;;;;3.08;0.73;;;16.40;79.20;;;;;;5064821;28;20052;-48
2022/09/01 03:31:26;;;;;;;1.88;0.90;;;16.40;79.10;;;;;;5049042;28;20041;-47
2022/09/01 03:33:53;;;;;;;1.45;0.80;;;16.40;79.10;;;;;;5049033;28;20025;-48
2022/09/01 03:36:27;;;;;;;1.65;0.80;;;16.40;78.80;;;;;;5031837;28;20029;-46
2022/09/01 03:38:55;;;;;;;2.38;1.10;;;16.40;78.60;;;;;;5061434;28;20545;-48
2022/09/01 03:41:25;;;;;;;1.15;0.70;;;16.40;78.70;;;;;;5066761;28;20037;-48
2022/09/01 03:43:53;;;;;;;1.60;0.85;;;16.40;78.60;;;;;;5065394;28;20033;-50
2022/09/01 03:46:20;;;;;;;1.77;0.82;;;16.40;78.90;;;;;;5058830;28;20037;-47
2022/09/01 03:48:49;;;;;;;2.08;1.00;;;16.40;78.80;;;;;;5048826;28;20067;-49
2022/09/01 03:51:16;;;;;;;3.77;0.97;;;16.30;79.10;;;;;;5054363;28;20075;-46
2022/09/01 03:53:44;;;;;;;1.95;0.80;;;16.30;79.40;;;;;;5049198;28;20091;-47
2022/09/01 03:56:10;;;;;;;3.47;1.10;;;16.30;79.70;;;;;;5059916;28;20037;-46
2022/09/01 03:58:37;;;;;;;1.67;0.98;;;16.30;79.90;;;;;;5048790;28;20124;-46
2022/09/01 04:01:03;;;;;;;1.90;0.80;;;16.30;79.90;;;;;;5054655;28;20041;-48
2022/09/01 04:03:33;;;;;;;1.88;0.80;;;16.20;80.10;;;;;;5049244;28;20090;-48
2022/09/01 04:06:01;;;;;;;1.52;0.70;;;16.20;79.90;;;;;;5048618;28;20359;-48
2022/09/01 04:08:29;;;;;;;2.38;1.00;;;16.20;79.90;;;;;;5062081;28;20090;-46
2022/09/01 04:11:02;;;;;;;1.45;0.80;;;16.20;80.00;;;;;;5052178;28;20040;-52
2022/09/01 04:13:33;;;;;;;2.30;0.70;;;16.10;80.20;;;;;;5048558;28;20032;-46
2022/09/01 04:15:59;;;;;;;1.95;0.95;;;16.10;80.30;;;;;;5033274;28;20029;-47
2022/09/01 04:18:25;;;;;;;1.98;0.82;;;16.10;80.40;;;;;;5059780;28;20035;-49
2022/09/01 04:20:56;;;;;;;1.48;0.60;;;16.10;80.40;;;;;;5053980;28;20036;-48
2022/09/01 04:23:35;;;;;;;2.63;1.05;;;16.10;80.60;;;;;;5070703;28;20462;-49
2022/09/01 04:26:07;;;;;;;;;;;16.00;80.70;;;;;;5054931;28;20469;-46
2022/09/01 04:28:56;;;;;;;2.15;0.88;;;15.90;80.90;;;;;;5034595;28;19927;-47
2022/09/01 04:31:21;;;;;;;1.40;0.75;;;15.90;81.10;;;;;;5038838;28;20028;-47
2022/09/01 04:33:51;;;;;;;2.05;0.90;;;15.90;81.30;;;;;;5051706;28;20070;-49
2022/09/01 04:36:30;;;;;;;3.80;1.10;;;15.90;81.70;;;;;;5052227;28;20040;-46
2022/09/01 04:38:59;;;;;;;3.97;1.10;;;15.90;81.70;;;;;;5034708;28;20020;-47
2022/09/01 04:41:29;;;;;;;1.90;0.80;;;15.90;81.80;;;;;;5070366;28;20024;-49
2022/09/01 04:43:56;;;;;;;1.90;1.05;;;15.90;82.00;;;;;;5063669;28;20039;-47
2022/09/01 04:46:24;;;;;;;3.28;0.85;;;15.90;82.00;;;;;;5034936;28;20029;-52
2022/09/01 04:49:06;;;;;;;5.30;1.00;;;15.90;82.10;;;;;;5035005;28;20124;-52
2022/09/01 04:51:34;;;;;;;3.10;1.42;;;15.90;82.10;;;;;;5036305;28;20037;-47
2022/09/01 04:54:01;;;;;;;3.78;0.93;;;15.90;82.10;;;;;;5032754;28;20025;-47
2022/09/01 04:56:29;;;;;;;2.58;1.20;;;16.00;82.20;;;;;;5040344;28;20021;-47
2022/09/01 04:58:55;;;;;;;1.85;0.90;;;16.00;82.10;;;;;;5063229;28;20442;-47
2022/09/01 05:01:23;;;;;;;2.58;0.90;;;16.00;82.20;;;;;;5042519;28;20450;-48
2022/09/01 05:03:58;;;;;;;2.30;1.27;;;16.10;82.20;;;;;;5051764;28;20075;-47
2022/09/01 05:06:24;;;;;;;3.17;0.90;;;16.10;82.10;;;;;;5031342;28;20455;-47
2022/09/01 05:08:51;;;;;;;8.10;1.50;;;16.10;82.20;;;;;;5031908;28;20501;-47
2022/09/01 05:11:17;;;;;;;1.92;0.93;;;16.20;82.20;;;;;;5013899;28;20117;-48
2022/09/01 05:13:44;;;;;;;3.05;1.40;;;16.20;82.40;;;;;;5031375;28;20029;-49
2022/09/01 05:16:11;;;;;;;2.25;1.20;;;16.20;82.40;;;;;;5033386;28;20052;-47
2022/09/01 05:18:46;;;;;;;2.28;0.90;;;16.20;82.30;;;;;;5045671;28;20075;-47
2022/09/01 05:21:21;;;;;;;2.33;1.23;;;16.30;82.40;;;;;;5016060;28;20059;-47
2022/09/01 05:23:50;;;;;;;3.10;1.00;;;16.30;82.40;;;;;;5031656;28;20067;-47
2022/09/01 05:26:28;;;;;;;4.90;1.67;;;16.40;82.30;;;;;;5031561;28;20112;-47
2022/09/01 05:28:57;;;;;;;3.22;0.95;;;16.40;82.20;;;;;;5046708;28;20832;-47
2022/09/01 05:31:26;;;;;;;3.72;1.17;;;16.40;82.10;;;;;;5030851;28;20451;-49
2022/09/01 05:33:56;;;;;;;1.90;0.98;;;16.50;82.10;;;;;;5031349;28;20060;-48
2022/09/01 05:36:23;;;;;;;3.42;1.20;;;16.60;82.10;;;;;;5048198;28;20074;-50
2022/09/01 05:38:51;;;;;;;1.73;1.02;;;16.50;81.90;;;;;;5024945;28;20416;-47
2022/09/01 05:41:19;;;;;;;3.83;1.40;;;16.60;81.70;;;;;;5032525;28;20029;-48
2022/09/01 05:43:50;;;;;;;4.45;1.17;;;16.70;81.70;;;;;;5041863;28;20067;-48
2022/09/01 05:46:26;;;;;;;3.65;0.90;;;16.80;81.30;;;;;;5034520;28;20025;-48
2022/09/01 05:48:54;;;;;;;3.47;1.30;;;16.90;81.50;;;;;;5068801;28;20045;-47
2022/09/01 05:51:24;;;;;;;1.63;1.00;;;16.90;80.90;;;;;;5048579;28;20029;-47
2022/09/01 05:53:53;;;;;;;1.75;1.02;;;16.90;80.90;;;;;;5065742;28;20070;-47
2022/09/01 05:56:19;;;;;;;4.18;1.00;;;17.00;80.80;;;;;;5050305;28;20025;-49
2022/09/01 05:58:47;;;;;;;2.90;1.42;;;17.10;80.50;;;;;;5051738;28;20025;-47
2022/09/01 06:01:20;;;;;;;1.70;0.80;;;17.10;80.10;;;;;;5058738;28;20036;-50
2022/09/01 06:03:53;;;;;;;2.40;1.13;;;17.20;80.20;;;;;;5063391;28;20029;-48
2022/09/01 06:06:23;;;;;;;4.05;1.08;;;17.20;80.30;;;;;;5055235;28;20186;-48
2022/09/01 06:08:57;;;;;;;2.28;1.10;;;17.30;80.10;;;;;;5067450;28;20043;-49
2022/09/01 06:11:31;;;;;;;2.47;1.33;;;17.20;80.10;;;;;;5061027;28;20056;-48
2022/09/01 06:14:02;;;;;;;2.65;1.10;;;17.20;80.10;;;;;;5050604;28;20436;-47
2022/09/01 06:16:28;;;;;;;3.47;1.30;;;17.10;80.10;;;;;;5051538;28;20021;-47
2022/09/01 06:18:56;;;;;;;5.30;1.80;;;17.00;79.80;;;;;;5067323;28;20032;-47
2022/09/01 06:21:27;;;;;;;2.35;1.02;;;17.00;79.80;;;;;;5066237;28;20032;-47
2022/09/01 06:23:57;;;;;;;4.05;1.60;;;16.90;79.90;;;;;;5062013;28;20136;-48
2022/09/01 06:26:27;;;;;;;3.22;1.02;;;17.00;80.50;;;;;;5059304;28;20040;-47
2022/09/01 06:29:02;;;;;;;2.90;1.10;;;16.90;80.10;;;;;;5050700;28;20036;-48
2022/09/01 06:31:38;;;;;;;2.70;1.30;;;17.00;80.20;;;;;;5058729;28;20024;-48
2022/09/01 06:34:05;;;;;;;5.40;1.20;;;17.10;80.20;;;;;;5057866;28;20039;-47
2022/09/01 06:36:35;;;;;;;4.72;1.30;;;17.10;79.60;;;;;;5049626;28;20042;-47
2022/09/01 06:39:04;;;;;;;2.40;1.15;;;17.30;79.70;;;;;;5052885;28;20108;-47
2022/09/01 06:41:30;;;;;;;2.43;1.00;;;17.40;79.30;;;;;;5059606;28;20052;-50
2022/09/01 06:43:56;;;;;;;3.90;1.20;;;17.40;78.70;;;;;;5069157;28;20029;-47
2022/09/01 06:46:26;;;;;;;7.05;1.88;;;17.40;79.00;;;;;;5052197;28;20466;-49
2022/09/01 06:48:53;;;;;;;;;;;17.40;79.00;;;;;;5055875;28;20040;-47
2022/09/01 06:51:21;;;;;;;6.18;1.13;;;17.40;78.80;;;;;;5060688;28;20230;-47
2022/09/01 06:53:55;;;;;;;4.88;1.77;;;17.20;78.40;;;;;;5051095;28;20024;-48
2022/09/01 06:56:25;;;;;;;3.60;1.08;;;17.20;78.30;;;;;;5051640;28;20103;-51
2022/09/01 06:58:52;;;;;;;1.70;0.90;;;17.10;78.80;;;;;;5056838;28;20032;-47
2022/09/01 07:01:19;;;;;;;4.28;0.93;;;17.00;78.50;;;;;;5034025;28;20036;-47
2022/09/01 07:03:49;;;;;;;5.15;1.63;;;17.00;78.90;;;;;;5054641;28;20326;-47
2022/09/01 07:06:16;;;;;;;5.28;1.67;;;17.00;79.10;;;;;;5062982;28;20032;-47
2022/09/01 07:08:42;;;;;;;1.98;0.88;;;17.00;79.40;;;;;;5069145;28;20465;-47
2022/09/01 07:11:22;;;;;;;2.53;1.20;;;17.00;79.80;;;;;;5053477;28;20132;-47
2022/09/01 07:13:52;;;;;;;1.73;0.88;;;17.00;79.80;;;;;;5054185;28;20022;-47
2022/09/01 07:16:22;;;;;;;2.70;1.40;;;17.00;79.90;;;;;;5067495;28;20025;-49
2022/09/01 07:18:52;;;;;;;;;;;17.00;80.20;;;;;;5061301;28;20048;-46
2022/09/01 07:21:18;;;;;;;4.05;1.10;;;17.00;79.40;;;;;;5044284;28;20268;-47
2022/09/01 07:23:45;;;;;;;8.88;2.00;;;17.00;79.60;;;;;;5031726;28;20052;-49
2022/09/01 07:26:16;;;;;;;2.88;1.60;;;17.00;79.80;;;;;;5033464;28;20132;-47
2022/09/01 07:28:46;;;;;;;5.97;1.67;;;17.00;80.00;;;;;;5067245;28;20037;-48
2022/09/01 07:31:39;;;;;;;4.75;1.48;;;17.10;80.40;;;;;;5047584;28;20032;-47
2022/09/01 07:34:11;;;;;;;1.30;0.80;;;17.20;80.10;;;;;;5051543;28;20465;-47
2022/09/01 07:36:42;;;;;;;6.63;1.40;;;17.40;80.50;;;;;;5052648;28;20099;-49
2022/09/01 07:39:12;;;;;;;4.05;1.20;;;17.50;78.10;;;;;;5041125;28;20033;-46
2022/09/01 07:41:41;;;;;;;1.85;0.75;;;17.70;78.40;;;;;;5048262;28;20058;-47
2022/09/01 07:44:11;;;;;;;2.95;1.33;;;17.90;77.90;;;;;;5048166;28;20083;-47
2022/09/01 07:46:37;;;;;;;2.35;1.30;;;18.50;76.30;;;;;;5053763;28;20024;-48
2022/09/01 07:49:03;;;;;;;2.38;1.10;;;18.90;73.90;;;;;;5047853;28;20114;-47
2022/09/01 07:51:29;;;;;;;2.25;1.02;;;19.40;72.30;;;;;;5060285;28;20412;-47
2022/09/01 07:53:55;;;;;;;2.13;0.95;;;19.80;71.60;;;;;;5066360;28;20025;-47
2022/09/01 07:56:23;;;;;;;3.88;1.33;;;20.00;70.80;;;;;;5051865;28;20397;-49
2022/09/01 07:58:50;;;;;;;3.88;1.13;;;20.40;69.40;;;;;;5054061;28;20033;-47
2022/09/01 08:01:22;;;;;;;4.70;1.17;;;20.90;69.00;;;;;;5034569;28;20729;-52
2022/09/01 08:03:54;;;;;;;3.65;1.15;;;21.20;66.10;;;;;;5051202;28;20420;-48
2022/09/01 08:06:23;;;;;;;3.97;1.02;;;21.40;65.70;;;;;;5048120;28;20120;-47
2022/09/01 08:08:50;;;;;;;2.75;1.15;;;21.70;65.20;;;;;;5038409;28;20074;-47
2022/09/01 08:11:24;;;;;;;2.83;0.68;;;22.20;62.70;;;;;;5054687;28;20108;-49
2022/09/01 08:13:51;;;;;;;2.88;1.17;;;22.40;61.70;;;;;;5034420;28;20109;-47
2022/09/01 08:16:17;;;;;;;3.95;1.08;;;22.30;62.30;;;;;;5052526;28;20037;-49
2022/09/01 08:18:43;;;;;;;3.00;0.77;;;22.50;62.30;;;;;;5052583;28;20087;-47
2022/09/01 08:21:11;;;;;;;1.85;0.85;;;22.70;61.60;;;;;;5054092;28;20036;-48
2022/09/01 08:23:38;;;;;;;2.25;1.00;;;22.70;62.20;;;;;;5052680;28;20052;-47
2022/09/01 08:26:11;;;;;;;2.15;1.08;;;22.80;62.00;;;;;;5052348;28;20450;-50
2022/09/01 08:28:37;;;;;;;4.85;1.02;;;23.10;61.30;;;;;;5052420;28;20066;-47
2022/09/01 08:31:07;;;;;;;3.20;0.80;;;23.20;60.40;;;;;;5058657;28;20490;-48
2022/09/01 08:33:34;;;;;;;2.58;0.82;;;23.50;58.90;;;;;;5038387;28;20063;-47
2022/09/01 08:36:00;;;;;;;2.42;0.70;;;23.60;57.80;;;;;;5066548;28;20033;-48
2022/09/01 08:38:26;;;;;;;4.25;0.90;;;23.70;58.30;;;;;;5037551;28;20036;-47
2022/09/01 08:40:55;;;;;;;2.13;0.90;;;23.90;57.30;;;;;;5062506;28;20107;-48
2022/09/01 08:43:37;;;;;;;3.13;0.95;;;24.00;55.60;;;;;;5070530;28;20531;-48
2022/09/01 08:46:14;;;;;;;3.03;1.00;;;23.90;55.80;;;;;;5041124;28;20045;-48
2022/09/01 08:48:51;;;;;;;2.00;1.00;;;23.90;56.50;;;;;;5067719;28;20052;-48
2022/09/01 08:51:45;;;;;;;3.83;1.05;;;23.60;55.00;;;;;;5042444;28;20120;-48
2022/09/01 08:54:29;;;;;;;3.15;0.90;;;23.50;56.00;;;;;;5034868;28;20036;-47
2022/09/01 08:57:07;;;;;;;1.67;1.15;;;24.10;55.70;;;;;;5056136;28;20165;-48
2022/09/01 08:59:33;;;;;;;1.50;0.60;;;24.00;56.70;;;;;;5051935;28;20033;-48
2022/09/01 09:02:34;;;;;;;1.58;0.75;;;24.20;57.70;;;;;;5066705;28;20503;-49
2022/09/01 09:05:04;;;;;;;2.45;1.00;;;24.30;55.90;;;;;;5050496;28;20044;-48
2022/09/01 09:07:46;;;;;;;2.38;0.75;;;24.30;56.30;;;;;;5037419;28;20040;-47
2022/09/01 09:10:22;;;;;;;3.63;1.30;;;24.40;55.90;;;;;;5070212;28;20059;-48
2022/09/01 09:13:12;;;;;;;2.85;0.93;;;24.00;55.90;;;;;;5059307;28;20100;-48
2022/09/01 09:15:58;;;;;;;4.63;1.45;;;23.90;56.50;;;;;;5054528;28;20032;-48
2022/09/01 09:18:39;;;;;;;2.45;0.70;;;23.60;55.70;;;;;;5051717;28;20064;-48
2022/09/01 09:21:35;;;;;;;3.40;1.20;;;23.70;56.50;;;;;;5052146;28;20503;-48
2022/09/01 09:24:46;;;;;;;3.92;1.40;;;23.30;57.50;;;;;;5056038;28;20051;-47
2022/09/01 09:27:24;;;;;;;4.13;1.27;;;23.30;58.10;;;;;;5025552;28;20041;-47
2022/09/01 09:29:59;;;;;;;4.10;0.80;;;23.60;59.40;;;;;;5067179;28;20070;-48
2022/09/01 09:33:03;;;;;;;2.50;0.80;;;23.90;57.20;;;;;;5050541;28;20025;-48
2022/09/01 09:35:34;;;;;;;4.82;1.10;;;24.20;55.80;;;;;;5050270;28;20339;-48
2022/09/01 09:38:31;;;;;;;4.13;0.88;;;24.20;55.10;;;;;;5050176;28;20061;-48
2022/09/01 09:41:20;;;;;;;2.85;1.08;;;23.90;56.50;;;;;;5052328;28;20068;-48
2022/09/01 09:44:01;;;;;;;6.07;1.27;;;23.90;57.10;;;;;;5032946;28;20028;-48
2022/09/01 09:46:37;;;;;;;6.25;1.35;;;23.80;54.10;;;;;;5059393;28;20060;-47
2022/09/01 09:49:20;;;;;;;2.25;0.85;;;23.80;57.40;;;;;;5040403;28;20481;-48
2022/09/01 09:51:52;;;;;;;1.70;0.60;;;23.80;58.90;;;;;;5063032;28;20075;-48
2022/09/01 09:54:25;;;;;;;2.47;1.00;;;23.60;55.50;;;;;;5033608;28;20063;-50
2022/09/01 09:57:12;;;;;;;1.88;1.00;;;23.60;55.60;;;;;;5059744;28;20033;-50
2022/09/01 09:59:45;;;;;;;2.90;0.88;;;23.40;55.80;;;;;;5052245;28;20380;-48
2022/09/01 10:02:32;;;;;;;3.40;1.02;;;23.40;55.60;;;;;;5051929;28;20060;-49
2022/09/01 10:05:00;;;;;;;3.33;0.95;;;23.60;56.50;;;;;;5054275;28;20077;-48
2022/09/01 10:07:35;;;;;;;3.75;0.70;;;23.90;56.10;;;;;;5068269;28;20036;-50
2022/09/01 10:10:23;;;;;;;2.60;0.70;;;23.90;55.20;;;;;;5052196;28;20091;-49
2022/09/01 10:12:51;;;;;;;3.97;0.95;;;24.00;53.40;;;;;;5049801;28;20443;-48
2022/09/01 10:15:21;;;;;;;1.58;0.60;;;23.90;53.90;;;;;;5054310;28;20108;-50
2022/09/01 10:17:48;;;;;;;3.22;0.98;;;23.80;54.10;;;;;;5057033;28;20039;-48
2022/09/01 10:20:22;;;;;;;2.25;0.80;;;23.80;52.40;;;;;;5033857;28;20039;-48
2022/09/01 10:22:48;;;;;;;1.27;0.73;;;23.60;53.20;;;;;;5041130;28;20035;-50
2022/09/01 10:25:27;;;;;;;2.05;0.68;;;23.80;53.70;;;;;;5044252;28;20029;-49
2022/09/01 10:27:59;;;;;;;1.50;0.50;;;23.90;53.90;;;;;;5059404;28;20034;-48
2022/09/01 10:30:26;;;;;;;1.85;0.70;;;24.10;53.10;;;;;;5062169;28;20040;-48
2022/09/01 10:32:53;;;;;;;2.58;0.50;;;23.90;51.00;;;;;;5049715;28;20021;-49
2022/09/01 10:35:29;;;;;;;4.53;1.00;;;23.90;52.30;;;;;;5032347;28;20029;-48
2022/09/01 10:37:58;;;;;;;2.53;0.60;;;23.90;50.70;;;;;;5049867;28;20040;-48
2022/09/01 10:40:27;;;;;;;3.93;0.70;;;23.70;49.20;;;;;;5055598;28;20059;-48
2022/09/01 10:42:59;;;;;;;;;;;23.70;50.80;;;;;;5067670;28;20032;-48
2022/09/01 10:45:30;;;;;;;4.10;1.05;;;23.70;51.20;;;;;;5047927;28;19913;-48
2022/09/01 10:48:18;;;;;;;1.77;0.77;;;23.70;49.50;;;;;;5058952;28;20080;-48
2022/09/01 10:50:45;;;;;;;5.50;1.30;;;23.90;49.20;;;;;;5052896;28;20021;-50
2022/09/01 10:53:34;;;;;;;3.13;0.82;;;24.20;49.60;;;;;;5060393;28;20028;-48
2022/09/01 10:56:02;;;;;;;1.98;0.70;;;23.80;47.40;;;;;;5040037;28;20024;-48
2022/09/01 10:58:42;;;;;;;1.45;0.52;;;23.80;46.90;;;;;;5032061;28;20029;-47
2022/09/01 11:01:08;;;;;;;2.42;0.90;;;23.70;48.20;;;;;;5059282;28;20040;-50
2022/09/01 11:03:49;;;;;;;1.48;0.55;;;23.60;47.90;;;;;;5062031;28;20040;-48
2022/09/01 11:06:31;;;;;;;2.13;0.70;;;23.60;49.10;;;;;;5039486;28;20047;-48
2022/09/01 11:09:05;;;;;;;1.83;0.50;;;23.70;46.70;;;;;;5063089;28;20480;-50
2022/09/01 11:11:44;;;;;;;1.02;0.47;;;23.80;47.70;;;;;;5036816;28;20029;-48
2022/09/01 11:14:28;;;;;;;2.05;0.63;;;23.60;47.90;;;;;;5031908;28;20032;-48
2022/09/01 11:17:24;;;;;;;2.13;0.60;;;23.80;47.60;;;;;;5064058;28;20120;-51
2022/09/01 11:20:07;;;;;;;8.35;1.10;;;23.90;48.10;;;;;;5056325;28;20036;-48
2022/09/01 11:22:43;;;;;;;6.55;0.93;;;23.90;47.60;;;;;;5052842;28;20052;-47
2022/09/01 11:25:12;;;;;;;3.70;0.80;;;23.80;47.70;;;;;;5058525;28;20029;-49
2022/09/01 11:27:47;;;;;;;;;;;23.70;47.30;;;;;;5031906;28;20040;-48
2022/09/01 11:30:22;;;;;;;1.95;0.60;;;23.80;48.50;;;;;;5044324;28;19922;-48
2022/09/01 11:33:00;;;;;;;1.55;0.70;;;23.90;49.20;;;;;;5067857;28;20040;-47
2022/09/01 11:35:28;;;;;;;9.88;0.88;;;24.00;48.20;;;;;;5049315;28;20033;-50
2022/09/01 11:38:01;;;;;;;2.30;0.52;;;24.00;47.20;;;;;;5061090;28;20025;-48
2022/09/01 11:40:30;;;;;;;3.17;1.00;;;23.90;47.10;;;;;;5056163;28;20066;-47
2022/09/01 11:43:00;;;;;;;1.58;0.60;;;23.60;46.50;;;;;;5049417;28;20037;-50
2022/09/01 11:45:33;;;;;;;3.53;0.70;;;23.40;49.00;;;;;;5049702;28;20104;-48
2022/09/01 11:48:08;;;;;;;1.73;0.50;;;23.50;49.20;;;;;;5058837;28;20076;-48
2022/09/01 11:50:39;;;;;;;3.92;1.13;;;23.50;50.10;;;;;;5062845;28;20040;-47
2022/09/01 11:53:09;;;;;;;1.13;0.60;;;23.30;47.50;;;;;;5061108;28;20021;-48
2022/09/01 11:55:38;;;;;;;3.10;0.70;;;23.20;49.20;;;;;;5058689;28;20649;-48
2022/09/01 11:58:05;;;;;;;3.38;0.80;;;23.30;51.10;;;;;;5050165;28;20400;-51
2022/09/01 12:00:37;;;;;;;1.33;0.52;;;23.30;49.60;;;;;;5038354;28;20357;-48
2022/09/01 12:03:18;;;;;;;6.05;1.27;;;23.20;47.90;;;;;;5051614;28;20031;-48
2022/09/01 12:05:53;;;;;;;2.55;0.55;;;23.20;48.50;;;;;;5067420;28;20381;-48
2022/09/01 12:08:20;;;;;;;1.17;0.50;;;23.00;48.00;;;;;;5064291;28;20115;-47
2022/09/01 12:10:47;;;;;;;1.02;0.52;;;22.90;51.60;;;;;;5058539;28;20021;-47
2022/09/01 12:13:22;;;;;;;4.00;0.88;;;22.90;49.10;;;;;;5051030;28;20036;-47
2022/09/01 12:16:00;;;;;;;1.52;0.57;;;22.90;48.40;;;;;;5057690;28;20099;-49
2022/09/01 12:18:29;;;;;;;4.95;0.95;;;22.90;49.20;;;;;;5062971;28;20056;-47
2022/09/01 12:20:58;;;;;;;0.70;0.40;;;22.80;49.40;;;;;;5050632;28;20322;-48
2022/09/01 12:23:44;;;;;;;1.90;0.60;;;22.80;49.00;;;;;;5042877;28;20082;-47
2022/09/01 12:26:17;;;;;;;1.15;0.47;;;22.70;49.80;;;;;;5067455;28;20493;-47
2022/09/01 12:28:43;;;;;;;3.20;0.60;;;22.70;48.30;;;;;;5057543;28;20041;-51
2022/09/01 12:31:15;;;;;;;6.28;0.82;;;22.80;49.40;;;;;;5061537;28;20054;-47
2022/09/01 12:33:42;;;;;;;2.97;0.57;;;22.70;49.30;;;;;;5050353;28;20025;-48
2022/09/01 12:36:18;;;;;;;1.00;0.43;;;22.60;49.30;;;;;;5047937;28;20041;-50
2022/09/01 12:38:44;;;;;;;2.00;0.50;;;22.60;50.80;;;;;;5054621;28;20039;-52
2022/09/01 12:41:30;;;;;;;0.75;0.50;;;22.70;49.60;;;;;;5062049;28;20033;-50
2022/09/01 12:43:56;;;;;;;0.93;0.45;;;22.60;49.80;;;;;;5054771;28;20040;-48
2022/09/01 12:46:43;;;;;;;2.08;0.70;;;22.60;50.60;;;;;;5053216;28;20156;-49
2022/09/01 12:49:23;;;;;;;1.63;1.00;;;22.60;52.20;;;;;;5050967;28;20049;-47
2022/09/01 12:52:05;;;;;;;1.98;0.77;;;22.70;50.20;;;;;;5062540;28;20036;-47
2022/09/01 12:54:30;;;;;;;2.05;0.60;;;22.60;49.90;;;;;;5033466;28;20035;-51
2022/09/01 12:56:57;;;;;;;1.52;0.47;;;22.50;51.20;;;;;;5053716;28;20024;-47
2022/09/01 12:59:26;;;;;;;2.85;0.63;;;22.50;51.00;;;;;;5092143;28;20028;-51
2022/09/01 13:01:52;;;;;;;1.23;0.60;;;22.60;51.00;;;;;;5072773;28;20029;-49
2022/09/01 13:04:20;;;;;;;1.48;0.65;;;22.60;50.60;;;;;;5071750;28;20032;-47
2022/09/01 13:06:46;;;;;;;1.52;0.73;;;22.50;49.60;;;;;;5052877;28;20108;-54
2022/09/01 13:09:12;;;;;;;3.72;0.70;;;22.40;52.90;;;;;;5051629;28;20350;-48
2022/09/01 13:11:40;;;;;;;1.77;0.60;;;22.40;52.70;;;;;;5065022;28;20028;-47
2022/09/01 13:14:07;;;;;;;4.53;0.70;;;22.40;52.00;;;;;;5065593;28;20049;-47